Aérodrome :
LOGIN :

S'inscrire | Disclaimer

   EN    FR    IT 

 










Légende :    VFR   VFR Marginal   IFR   IFR Intensif   IFR Très Intensif
Visi : 
Plafond : 
>= 8 km
>= 3000ft
5 à 8 km
1000 à 3000 ft
1500m à 5 km
500 à 1000 ft
800 à 1500m
200 à 500 ft
< 800m
< 200 ft
Symboles :   Orages  Brouillard  Fortes neiges  Fortes précipitations  Vent > 20 kt
SIGMETs :   Divers  Orages  Givrage  Turbulence  Onde Orograph.  Cendres Volcan.






- Altitude de l'aérodrome : 913 ft


LFSX - Luxeuil

DERNIER METAR :
  • 202200Z AUTO 20015KT 180V240 CAVOK 11/01 Q1002

METARs EXPIRÉS :
  • 202130Z AUTO 21013KT CAVOK 11/01 Q1002
  • 202100Z AUTO 20010KT CAVOK 10/01 Q1002
  • 202030Z AUTO 18009KT 150V220 CAVOK 10/01 Q1002
  • 202000Z AUTO 19007KT CAVOK 09/01 Q1003
  • 201930Z AUTO 20007KT 170V230 CAVOK 09/01 Q1003

TAF TAF LFSX
Valide du 20 à 15h jusqu'au 21 à 15h UTC


201400Z 2015/2115 21013KT CAVOK
TEMPO 2104/2112 21019G35KT
TEMPO 2109/2115 4500 -RA BKN013



MET'MAP, la Météo Aéronautique d'un coup d'oeil ! - Copyright ORBIFLY Décembre 2007 - Disclaimer

ORBIFLY MET'MAP TEAM :

Programmation & Développement : Alexandra Zaïnal
Sur une idée originale de : Baudouin d'Aumeries
Assistance à la programmation : Marc-Olivier Méhu
Soutien technique & logistique : Manuel Goepfert

Contact : metmap@orbifly.com




SOURCES & CREDITS :

   NOAA